Tiempo atmosférico en la estación meteorológica de Mutriku, Gipuzkoa (150 m.)



Fecha
DESCASC
Temp. máxima en grados centígrados (hora)
DESCASC
Temp. mínima en grados centígrados (hora)
DESCASC
Temp. media en grados centígrados
DESCASC
Racha de viento máxima en m/sg (hora)
DESCASC
Velocidad máxima media en intervalos de 10 minutos(hora)
DESCASC
Precipitaciones diarias en mm
DESCASC
Precipitaciones de 00:00 a 06:00 en mm
DESCASC
Precipitaciones de 06:00 a 12:00 en mm
DESCASC
Precipitaciones de 12:00 a 18:00 en mm
DESCASC
Precipitaciones de 18:00 a 24:00 en mm
DESCASC
19-12-2019 18.3 (23:40) 13.7 (08:40) 16 20.28 (23:00) 8.06 (23:40) 0.2 0 0 0 0.2
20-12-2019 16.8 (00:00) 9.5 (00:00) 13.1 20 (04:00) 10.83 (04:00) 12 6.2 0.6 3 2.2
21-12-2019 21 (14:50) 10.7 (00:00) 15.8 27.22 (15:00) 15 (15:00) 3.2 0 0 1.8 1.4
22-12-2019 15 (12:40) 9.4 (00:00) 12.2 32.5 (02:50) 17.22 (02:50) 10 1.8 0 1.6 6.6
23-12-2019 15.6 (19:20) 9.9 (00:00) 12.8 16.11 (00:40) 9.44 (01:40) 0.2 0.2 0 0 0
24-12-2019 20.8 (15:00) 13.1 (00:00) 16.9 12.22 (01:20) 7.22 (08:10) 0 0 0 0 0
25-12-2019 19.7 (17:40) 10.8 (00:00) 15.3 10.83 (20:20) 6.39 (20:10) 0 0 0 0 0
26-12-2019 19.6 (00:30) 9.9 (00:00) 14.8 15.28 (03:40) 9.72 (03:30) 0 0 0 0 0
27-12-2019 13.4 (13:50) 7.9 (00:00) 10.6 5.83 (18:20) 3.61 (18:20) 0 0 0 0 0
28-12-2019 10.9 (13:50) 6.4 (00:00) 8.6 4.72 (06:20) 3.06 (06:30) 0 0 0 0 0
29-12-2019 11.6 (13:50) 6.7 (00:00) 9.2 3.06 (10:10) 1.94 (10:10) 0 0 0 0 0
30-12-2019 -- (--) -- (--) -- -- (--) -- (--) -- 0 0 0 --
31-12-2019 12.8 (15:50) 8.3 (00:00) 10.6 6.39 (08:50) 3.89 (08:20) 0 0 0 0 0
01-01-2020 13.8 (14:10) 8.2 (00:00) 11 4.17 (07:20) 3.06 (00:10) 0 0 0 0 0
02-01-2020 14.1 (12:40) 7.1 (00:00) 10.6 6.11 (12:00) 3.33 (12:00) 0 0 0 0 0
03-01-2020 11.8 (12:20) 8.6 (00:00) 10.2 8.06 (06:20) 4.72 (05:20) 0.2 0 0 0 0.2
04-01-2020 10.5 (12:20) 8.5 (00:00) 9.5 6.11 (08:30) 3.89 (00:10) 4.4 2 1.4 0.8 0.2
05-01-2020 10.5 (13:00) 4.4 (00:00) 7.5 4.72 (04:00) 3.06 (02:50) 0 0 0 0 0
06-01-2020 12.3 (15:10) 3.6 (00:00) 8 7.22 (17:00) 4.44 (17:20) 0 0 0 0 0
07-01-2020 13.8 (14:00) 8.6 (00:00) 11.2 5.83 (02:20) 4.17 (01:30) 0 0 0 0 0
08-01-2020 16.2 (13:10) 10 (00:00) 13.1 5 (23:10) 2.5 (16:00) 0 0 0 0 0
09-01-2020 16.5 (14:20) 10.2 (00:00) 13.3 21.67 (17:10) 13.61 (17:10) 0 0 0 0 0
10-01-2020 11.2 (15:10) 8 (00:00) 9.6 12.78 (04:30) 7.5 (00:40) 5.6 0.4 4 1 0.2
11-01-2020 12 (15:40) 7 (00:00) 9.5 4.44 (15:10) 3.33 (15:10) 0 0 0 0 0
12-01-2020 13.7 (15:30) 7.1 (00:00) 10.4 6.11 (02:20) 3.89 (01:00) 0 0 0 0 0
13-01-2020 14.8 (14:50) 8.6 (00:00) 11.7 15.83 (22:50) 9.72 (22:50) 0 0 0 0 0
14-01-2020 14.9 (15:30) 10.7 (00:00) 12.8 21.39 (13:00) 13.06 (18:10) 0 0 0 0 0
15-01-2020 16.4 (14:50) 10.3 (00:00) 13.3 21.94 (05:40) 11.39 (04:50) 0 0 0 0 0
16-01-2020 18.1 (14:00) 12.5 (00:00) 15.3 12.5 (05:00) 6.11 (04:00) 0 0 0 0 0
17-01-2020 15.6 (00:00) 8.3 (00:00) 12 18.06 (01:10) 9.72 (01:50) 2.2 0 2 0 0.2

Gráficas

Temp. máximas Temp. mínimas Temp. medias Precipitaciones Rachas de viento máximas Velocidades máximas media en intervalos de 10 minutos

Datos horarios

Fecha y hora oficial Temperatura (ºC) Velocidad del viento (km/h) Dirección del viento Racha (km/h) Dirección de racha Precipitación (mm) Presión (hPa) Tendencia (hPa) Humedad (%)
2020-01-17 23:00:00 8.7 10 Sudoeste 17 Sudoeste 0 -- -- 77
2020-01-17 22:00:00 8.5 9 Sudoeste 19 Sudoeste 0 -- -- 79
2020-01-17 21:00:00 8.8 13 Oeste 26 Oeste 0 -- -- 75
2020-01-17 20:00:00 8.6 14 Oeste 23 Oeste 0 -- -- 77
2020-01-17 19:00:00 8.6 13 Oeste 31 Oeste 0.2 -- -- 77
2020-01-17 18:00:00 9.3 14 Oeste 29 Oeste 0 -- -- 72
2020-01-17 17:00:00 9.8 15 Oeste 27 Noroeste 0 -- -- 75
2020-01-17 16:00:00 10.6 17 Noroeste 31 Oeste 0 -- -- 75
2020-01-17 15:00:00 10.5 15 Oeste 26 Oeste 0 -- -- 70
2020-01-17 14:00:00 10.7 13 Sudoeste 28 Oeste 0 -- -- 76
2020-01-17 13:00:00 9.9 13 Oeste 32 Sudoeste 0 -- -- 79
2020-01-17 12:00:00 9.4 19 Oeste 37 Oeste 0 -- -- 81
2020-01-17 11:00:00 9 26 Oeste 41 Oeste 0.2 -- -- 82
2020-01-17 10:00:00 8.9 15 Oeste 28 Oeste 0 -- -- 84
2020-01-17 09:00:00 8.6 14 Oeste 35 Oeste 0.4 -- -- 89
2020-01-17 08:00:00 8.8 23 Oeste 49 Oeste 0.8 -- -- 86
2020-01-17 07:00:00 10.6 14 Oeste 32 Sudoeste 0.6 -- -- 80
2020-01-17 06:00:00 12.6 5 Sudoeste 13 Sur 0 -- -- 59
2020-01-17 05:00:00 11.9 5 Sudoeste 28 Oeste 0 -- -- 80
2020-01-17 04:00:00 13.4 12 Oeste 35 Sudoeste 0 -- -- 53
2020-01-17 03:00:00 14.1 18 Sudoeste 51 Oeste 0 -- -- 51
2020-01-17 02:00:00 14.7 31 Sudoeste 65 Sudoeste 0 -- -- 51
2020-01-17 01:00:00 15 29 Oeste 54 Sudoeste 0 -- -- 50
2020-01-17 00:00:00 15.6 17 Sudoeste 41 Oeste 0 -- -- 45
2020-01-16 23:00:00 16 9 Sudoeste 40 Sudoeste 0 -- -- 42
2020-01-16 22:00:00 16.6 16 Sudoeste 39 Sudoeste 0 -- -- 46
2020-01-16 21:00:00 16.2 8 Sur 21 Sur 0 -- -- 49
2020-01-16 20:00:00 16.2 8 Sur 38 Oeste 0 -- -- 50
2020-01-16 19:00:00 16.4 9 Sudoeste 37 Sur 0 -- -- 51
2020-01-16 18:00:00 16.4 8 Sudeste 26 Sur 0 -- -- 51
2020-01-16 17:00:00 16.6 14 Sur 39 Sur 0 -- -- 52
2020-01-16 16:00:00 17.5 14 Sur 39 Sur 0 -- -- 49
2020-01-16 15:00:00 17.2 13 Sur 37 Sudoeste 0 -- -- 50
2020-01-16 14:00:00 18.1 12 Sudoeste 37 Sur 0 -- -- 49
2020-01-16 13:00:00 17.6 10 Sudoeste 41 Oeste 0 -- -- 51
2020-01-16 12:00:00 17.2 12 Sudoeste 42 Sudoeste 0 -- -- 50
2020-01-16 11:00:00 16.4 15 Sudoeste 35 Noroeste 0 -- -- 52
2020-01-16 10:00:00 15.8 14 Sur 42 Sur 0 -- -- 53
2020-01-16 09:00:00 15.3 12 Sudoeste 40 Sur 0 -- -- 55
2020-01-16 08:00:00 15.2 9 Sur 38 Sudoeste 0 -- -- 55
2020-01-16 07:00:00 15.1 18 Sudoeste 44 Sur 0 -- -- 56
2020-01-16 06:00:00 15 14 Sur 41 Oeste 0 -- -- 57
2020-01-16 05:00:00 15 21 Sudoeste 45 Sudoeste 0 -- -- 57
2020-01-16 04:00:00 14.8 22 Oeste 43 Sudoeste 0 -- -- 57
2020-01-16 03:00:00 14.3 16 Sudoeste 44 Sudoeste 0 -- -- 59
2020-01-16 02:00:00 14 11 Sur 26 Sur 0 -- -- 60
2020-01-16 01:00:00 13.5 11 Sudoeste 28 Sur 0 -- -- 61
2020-01-16 00:00:00 12.5 5 Sur 18 Sudeste 0 -- -- 65
2020-01-15 23:00:00 12.3 5 Sur 18 Sur 0 -- -- 67
2020-01-15 22:00:00 10.3 3 Este 14 Sudeste 0 -- -- 90
2020-01-15 21:00:00 10.4 7 Sudeste 13 Sudeste 0 -- -- 91
2020-01-15 20:00:00 10.7 5 Sudeste 9 Este 0 -- -- 90
2020-01-15 19:00:00 11.3 3 Este 6 Sudeste 0 -- -- 88
2020-01-15 18:00:00 12.1 0 Calma 8 Noroeste 0 -- -- 85
2020-01-15 17:00:00 12.6 6 Noroeste 19 Noroeste 0 -- -- 83
2020-01-15 16:00:00 14.8 5 Noroeste 28 Oeste 0 -- -- 72
2020-01-15 15:00:00 16.2 14 Oeste 35 Oeste 0 -- -- 51
2020-01-15 14:00:00 15.5 14 Oeste 30 Oeste 0 -- -- 52
2020-01-15 13:00:00 14.9 4 Noroeste 51 Sudoeste 0 -- -- 51
2020-01-15 12:00:00 14.9 17 Oeste 48 Oeste 0 -- -- 51
2020-01-15 11:00:00 15 32 Sudoeste 59 Sudoeste 0 -- -- 49
2020-01-15 10:00:00 14.7 23 Sudoeste 72 Oeste 0 -- -- 47
2020-01-15 09:00:00 14.4 32 Sudoeste 70 Sur 0 -- -- 46
2020-01-15 08:00:00 13.8 32 Sudoeste 66 Oeste 0 -- -- 49
2020-01-15 07:00:00 13.6 35 Sudoeste 66 Oeste 0 -- -- 52
2020-01-15 06:00:00 13.8 32 Sudoeste 79 Sudoeste 0 -- -- 53
2020-01-15 05:00:00 14 36 Sudoeste 70 Oeste 0 -- -- 53
2020-01-15 04:00:00 14.2 32 Oeste 57 Sudoeste 0 -- -- 53
2020-01-15 03:00:00 14 17 Sudoeste 48 Oeste 0 -- -- 53
2020-01-15 02:00:00 13 10 Oeste 29 Sur 0 -- -- 55
2020-01-15 01:00:00 12.7 8 Sudeste 31 Sudeste 0 -- -- 55
2020-01-15 00:00:00 13.2 9 Sudoeste 40 Oeste 0 -- -- 51
2020-01-14 23:00:00 13.5 13 Sudoeste 37 Oeste 0 -- -- 49
2020-01-14 22:00:00 13.8 15 Sudoeste 55 Oeste 0 -- -- 48
2020-01-14 21:00:00 13.8 24 Sudoeste 41 Sudoeste 0 -- -- 46
2020-01-14 20:00:00 13.6 8 Sudoeste 54 Sudoeste 0 -- -- 46
2020-01-14 19:00:00 14.2 33 Sudoeste 77 Sudoeste 0 -- -- 45
2020-01-14 18:00:00 14.2 45 Sudoeste 65 Sudoeste 0 -- -- 47
2020-01-14 17:00:00 14.1 28 Oeste 63 Sudoeste 0 -- -- 47
2020-01-14 16:00:00 14.8 35 Sudoeste 66 Sudoeste 0 -- -- 45
2020-01-14 15:00:00 14.7 44 Sudoeste 75 Sudoeste 0 -- -- 47
2020-01-14 14:00:00 13.7 36 Sudoeste 67 Sudoeste 0 -- -- 49
2020-01-14 13:00:00 13.8 29 Sudoeste 77 Sudoeste 0 -- -- 52
2020-01-14 12:00:00 12.2 39 Sudoeste 69 Sudoeste 0 -- -- 58
2020-01-14 11:00:00 12.1 34 Oeste 66 Sudoeste 0 -- -- 57
2020-01-14 10:00:00 11.5 33 Sudoeste 64 Oeste 0 -- -- 58
2020-01-14 09:00:00 11.3 31 Sudoeste 59 Oeste 0 -- -- 59
2020-01-14 08:00:00 10.9 31 Sudoeste 74 Sudoeste 0 -- -- 59
2020-01-14 07:00:00 10.9 35 Sudoeste 68 Oeste 0 -- -- 58
2020-01-14 06:00:00 10.9 40 Sudoeste 62 Sudoeste 0 -- -- 58
2020-01-14 05:00:00 11.1 35 Sudoeste 62 Sudoeste 0 -- -- 54
2020-01-14 04:00:00 11.1 34 Sudoeste 64 Sudoeste 0 -- -- 53
2020-01-14 03:00:00 11.5 41 Sudoeste 68 Sudoeste 0 -- -- 50
2020-01-14 02:00:00 12.1 31 Sudoeste 60 Sudoeste 0 -- -- 48
2020-01-14 01:00:00 11.7 31 Sudoeste 53 Sudoeste 0 -- -- 47
2020-01-14 00:00:00 11.5 23 Sudoeste 54 Sudoeste 0 -- -- 45
2020-01-13 23:00:00 11.1 33 Sudoeste 57 Oeste 0 -- -- 44
2020-01-13 22:00:00 11.6 14 Sudoeste 34 Sudoeste 0 -- -- 39
2020-01-13 21:00:00 11.6 9 Noroeste 48 Oeste 0 -- -- 39
2020-01-13 20:00:00 12.5 25 Sudoeste 49 Sudoeste 0 -- -- 36
2020-01-13 19:00:00 12.7 15 Sudoeste 39 Sur 0 -- -- 37
2020-01-13 18:00:00 13.1 21 Sudoeste 46 Sudoeste 0 -- -- 36
2020-01-13 17:00:00 13.4 15 Sudoeste 33 Oeste 0 -- -- 35
2020-01-13 16:00:00 14.5 13 Sudoeste 28 Oeste 0 -- -- 35
2020-01-13 15:00:00 14.8 11 Oeste 26 Sudoeste 0 -- -- 42
2020-01-13 14:00:00 13.1 6 Oeste 39 Sudoeste 0 -- -- 43
2020-01-13 13:00:00 12.5 19 Sudoeste 37 Sudoeste 0 -- -- 48
2020-01-13 12:00:00 12.4 17 Sudoeste 40 Sudoeste 0 -- -- 47
2020-01-13 11:00:00 12 11 Sudoeste 29 Sur 0 -- -- 47
2020-01-13 10:00:00 10.8 16 Oeste 34 Sudoeste 0 -- -- 52
2020-01-13 09:00:00 10.2 16 Sudoeste 29 Sudoeste 0 -- -- 58
2020-01-13 08:00:00 10.2 15 Sudoeste 29 Oeste 0 -- -- 62
2020-01-13 07:00:00 9.9 3 Sur 26 Oeste 0 -- -- 68
2020-01-13 06:00:00 9.8 7 Sudoeste 17 Oeste 0 -- -- 70
2020-01-13 05:00:00 9.9 5 Sudoeste 12 Sudoeste 0 -- -- 71
2020-01-13 04:00:00 10.2 4 Sudoeste 15 Sur 0 -- -- 70
2020-01-13 03:00:00 9.6 2 Sudoeste 6 Sur 0 -- -- 73
2020-01-13 02:00:00 9.1 0 Calma 3 Este 0 -- -- 71
2020-01-13 01:00:00 8.9 0 Calma 2 Norte 0 -- -- 71
2020-01-13 00:00:00 8.6 0 Calma 5 Sudeste 0 -- -- 71
2020-01-12 23:00:00 8 6 Sudeste 8 Este 0 -- -- 77
2020-01-12 22:00:00 8.1 7 Este 13 Sudeste 0 -- -- 77
2020-01-12 21:00:00 8.3 6 Sudeste 12 Sudeste 0 -- -- 78
2020-01-12 20:00:00 8.2 5 Sudeste 10 Sudeste 0 -- -- 79
2020-01-12 19:00:00 8.7 7 Sudeste 11 Sudeste 0 -- -- 82
2020-01-12 18:00:00 9.5 6 Sudeste 10 Sudeste 0 -- -- 79
2020-01-12 17:00:00 11.5 6 Sudeste 9 Sudeste 0 -- -- 73
2020-01-12 16:00:00 13.6 5 Este 8 Este 0 -- -- 66
2020-01-12 15:00:00 13.1 4 Este 6 Este 0 -- -- 66
2020-01-12 14:00:00 12.4 3 Este 6 Este 0 -- -- 71
2020-01-12 13:00:00 12.1 3 Nordeste 5 Nordeste 0 -- -- 70
2020-01-12 12:00:00 12 0 Calma 6 Oeste 0 -- -- 71
2020-01-12 11:00:00 10.8 4 Oeste 10 Oeste 0 -- -- 71
2020-01-12 10:00:00 9 3 Oeste 9 Sudoeste 0 -- -- 63
2020-01-12 09:00:00 8.6 8 Sudoeste 10 Sudoeste 0 -- -- 66
2020-01-12 08:00:00 8.3 7 Oeste 14 Sudoeste 0 -- -- 61
2020-01-12 07:00:00 8.4 7 Sudoeste 12 Oeste 0 -- -- 61
2020-01-12 06:00:00 8.3 8 Sudoeste 14 Sudoeste 0 -- -- 63
2020-01-12 05:00:00 8.4 9 Sudoeste 18 Oeste 0 -- -- 63
2020-01-12 04:00:00 8.3 10 Oeste 16 Sudoeste 0 -- -- 65
2020-01-12 03:00:00 8.3 10 Oeste 22 Oeste 0 -- -- 67
2020-01-12 02:00:00 8.4 14 Oeste 21 Oeste 0 -- -- 68
2020-01-12 01:00:00 8.5 14 Oeste 21 Oeste 0 -- -- 72
2020-01-12 00:00:00 7.1 0 Calma 5 Noroeste 0 -- -- 78
2020-01-11 23:00:00 7.4 2 Oeste 5 Oeste 0 -- -- 78
2020-01-11 22:00:00 7.7 4 Sudoeste 6 Oeste 0 -- -- 78
2020-01-11 21:00:00 7.4 3 Sur 12 Sur 0 -- -- 80
2020-01-11 20:00:00 7.5 8 Sur 15 Sudeste 0 -- -- 81
2020-01-11 19:00:00 7.7 9 Sudeste 13 Sudeste 0 -- -- 81
2020-01-11 18:00:00 8.6 4 Sudeste 15 Este 0 -- -- 77
2020-01-11 17:00:00 10.3 9 Este 15 Sudeste 0 -- -- 72
2020-01-11 16:00:00 11.8 9 Este 16 Este 0 -- -- 68
2020-01-11 15:00:00 11.9 10 Este 14 Este 0 -- -- 67
2020-01-11 14:00:00 11.4 10 Este 14 Este 0 -- -- 69
2020-01-11 13:00:00 11.4 9 Este 13 Este 0 -- -- 67
2020-01-11 12:00:00 11.6 4 Este 9 Este 0 -- -- 68
2020-01-11 11:00:00 10.6 5 Sudeste 9 Sudeste 0 -- -- 66
2020-01-11 10:00:00 8.6 4 Sur 8 Sudeste 0 -- -- 75
2020-01-11 09:00:00 7.9 3 Sur 7 Sur 0 -- -- 82
2020-01-11 08:00:00 8.1 4 Sudoeste 6 Sudoeste 0 -- -- 80
2020-01-11 07:00:00 8 0 Calma 4 Oeste 0 -- -- 79
2020-01-11 06:00:00 8.2 2 Oeste 4 Oeste 0 -- -- 78
2020-01-11 05:00:00 8 3 Sudoeste 5 Sudoeste 0 -- -- 77
2020-01-11 04:00:00 7.9 5 Sudoeste 12 Oeste 0 -- -- 76
2020-01-11 03:00:00 8.3 6 Este 10 Este 0 -- -- 76
2020-01-11 02:00:00 8.7 7 Sudoeste 12 Sur 0 -- -- 74
2020-01-11 01:00:00 8.6 7 Sur 13 Sudoeste 0 -- -- 75
2020-01-11 00:00:00 8.2 9 Sur 18 Sur 0 -- -- 81
2020-01-10 23:00:00 8.3 10 Sur 13 Sur 0 -- -- 87
2020-01-10 22:00:00 9 9 Sudeste 17 Este 0 -- -- 83
2020-01-10 21:00:00 9.7 4 Este 24 Nordeste 0.2 -- -- 79
2020-01-10 20:00:00 10.3 8 Nordeste 27 Nordeste 0 -- -- 79
2020-01-10 19:00:00 10.2 12 Nordeste 27 Nordeste 0 -- -- 77
2020-01-10 18:00:00 9.6 5 Sudoeste 17 Este 0.4 -- -- 85
2020-01-10 17:00:00 10.2 5 Noroeste 24 Norte 0 -- -- 73
2020-01-10 16:00:00 10.4 8 Noroeste 24 Norte 0 -- -- 72
2020-01-10 15:00:00 11.1 6 Noroeste 23 Noroeste 0 -- -- 73
2020-01-10 14:00:00 10.8 6 Noroeste 34 Oeste 0.6 -- -- 78
2020-01-10 13:00:00 11 17 Noroeste 36 Noroeste 0 -- -- 80
2020-01-10 12:00:00 10 14 Noroeste 31 Oeste 0 -- -- 87
2020-01-10 11:00:00 8.8 12 Oeste 33 Oeste 3.8 -- -- 89
2020-01-10 10:00:00 9.2 18 Oeste 35 Oeste 0 -- -- 83
2020-01-10 09:00:00 8.8 25 Oeste 42 Oeste 0.2 -- -- 83
2020-01-10 08:00:00 8.4 23 Oeste 39 Sudoeste 0 -- -- 83
2020-01-10 07:00:00 8.6 22 Oeste 41 Oeste 0 -- -- 82
2020-01-10 06:00:00 8.6 22 Oeste 35 Oeste 0 -- -- 80
2020-01-10 05:00:00 8.5 23 Oeste 46 Oeste 0.2 -- -- 81
2020-01-10 04:00:00 9 22 Oeste 38 Oeste 0 -- -- 76
2020-01-10 03:00:00 9.2 20 Oeste 38 Oeste 0 -- -- 78
2020-01-10 02:00:00 9.6 24 Oeste 45 Oeste 0.2 -- -- 78
2020-01-10 01:00:00 10.7 26 Oeste 44 Oeste 0 -- -- 68
2020-01-10 00:00:00 10.9 22 Oeste 42 Oeste 0 -- -- 68
2020-01-09 23:00:00 11 22 Oeste 44 Oeste 0 -- -- 70
2020-01-09 22:00:00 10.8 21 Oeste 39 Oeste 0 -- -- 75
2020-01-09 21:00:00 10.4 26 Oeste 50 Oeste 0 -- -- 76
2020-01-09 20:00:00 11.4 24 Oeste 48 Oeste 0 -- -- 71
2020-01-09 19:00:00 11.2 19 Oeste 54 Oeste 0 -- -- 78
2020-01-09 18:00:00 10.6 22 Oeste 78 Oeste 0 -- -- 81
2020-01-09 17:00:00 15.8 36 Oeste 76 Oeste 0 -- -- 58
2020-01-09 16:00:00 16.3 26 Sudoeste 44 Oeste 0 -- -- 54
2020-01-09 15:00:00 16.3 18 Sudoeste 44 Sudoeste 0 -- -- 54
2020-01-09 14:00:00 16.2 11 Sudoeste 37 Sur 0 -- -- 49
2020-01-09 13:00:00 15.9 14 Sudoeste 42 Sur 0 -- -- 50
2020-01-09 12:00:00 14.5 19 Sudoeste 42 Sudoeste 0 -- -- 54
2020-01-09 11:00:00 13.2 27 Sudoeste 46 Sudoeste 0 -- -- 58
2020-01-09 10:00:00 12.5 25 Sudoeste 48 Sudoeste 0 -- -- 60
2020-01-09 09:00:00 12.3 27 Sudoeste 46 Oeste 0 -- -- 61
2020-01-09 08:00:00 12.4 23 Sudoeste 41 Oeste 0 -- -- 61
2020-01-09 07:00:00 12.8 20 Oeste 41 Sudoeste 0 -- -- 59
2020-01-09 06:00:00 12.7 12 Sudoeste 27 Oeste 0 -- -- 58
2020-01-09 05:00:00 13.2 14 Oeste 41 Sudoeste 0 -- -- 55
2020-01-09 04:00:00 13.6 21 Sudoeste 34 Oeste 0 -- -- 53
2020-01-09 03:00:00 13.2 14 Sudoeste 29 Oeste 0 -- -- 54
2020-01-09 02:00:00 12.7 12 Oeste 28 Oeste 0 -- -- 56
2020-01-09 01:00:00 12.9 7 Sudoeste 22 Oeste 0 -- -- 57
2020-01-09 00:00:00 13 7 Sudoeste 18 Oeste 0 -- -- 57
2020-01-08 23:00:00 13.2 8 Sudoeste 14 Sudoeste 0 -- -- 54
2020-01-08 22:00:00 11.9 5 Sur 14 Sur 0 -- -- 57
2020-01-08 21:00:00 10.7 0 Calma 3 Este 0 -- -- 65
2020-01-08 20:00:00 10.7 2 Este 9 Sudeste 0 -- -- 71
2020-01-08 19:00:00 10.6 7 Sudeste 10 Sudeste 0 -- -- 77
2020-01-08 18:00:00 11.3 4 Sudeste 6 Sudeste 0 -- -- 81
2020-01-08 17:00:00 12.9 5 Sudeste 10 Sudeste 0 -- -- 74
2020-01-08 16:00:00 13.8 9 Sudeste 10 Sudeste 0 -- -- 73
2020-01-08 15:00:00 15.3 7 Sudeste 9 Sudeste 0 -- -- 68
2020-01-08 14:00:00 16 0 Calma 6 Nordeste 0 -- -- 65
2020-01-08 13:00:00 16.1 3 Este 4 Este 0 -- -- 63
2020-01-08 12:00:00 14.7 2 Oeste 4 Nordeste 0 -- -- 72
2020-01-08 11:00:00 13.9 0 Calma 5 Sur 0 -- -- 72
2020-01-08 10:00:00 11.8 3 Sur 6 Sur 0 -- -- 75
2020-01-08 09:00:00 10.9 3 Oeste 5 Oeste 0 -- -- 71
2020-01-08 08:00:00 10.6 0 Calma 5 Sur 0 -- -- 75
2020-01-08 07:00:00 10.1 2 Sudoeste 4 Sudoeste 0 -- -- 80
2020-01-08 06:00:00 10 0 Calma 2 Sudoeste 0 -- -- 85
2020-01-08 05:00:00 10.3 2 Sudoeste 5 Oeste 0 -- -- 84
2020-01-08 04:00:00 10.5 5 Oeste 7 Oeste 0 -- -- 83
2020-01-08 03:00:00 10.2 0 Calma 10 Noroeste 0 -- -- 85
2020-01-08 02:00:00 10.2 5 Noroeste 10 Noroeste 0 -- -- 83
2020-01-08 01:00:00 10.3 3 Este 5 Este 0 -- -- 80
2020-01-08 00:00:00 10.5 2 Sur 5 Sur 0 -- -- 80
2020-01-07 23:00:00 10.7 0 Calma 5 Oeste 0 -- -- 77
2020-01-07 22:00:00 10.2 3 Oeste 4 Nordeste 0 -- -- 80
2020-01-07 21:00:00 10 0 Calma 5 Sudeste 0 -- -- 80
2020-01-07 20:00:00 9.8 3 Sudeste 15 Sudeste 0 -- -- 84
2020-01-07 19:00:00 9.9 10 Sudeste 17 Este 0 -- -- 86
2020-01-07 18:00:00 10.3 7 Sudeste 10 Sudeste 0 -- -- 82
2020-01-07 17:00:00 12 6 Sudeste 14 Sudeste 0 -- -- 76
2020-01-07 16:00:00 12.9 8 Sudeste 11 Este 0 -- -- 71
2020-01-07 15:00:00 13.2 7 Sudeste 12 Este 0 -- -- 69
2020-01-07 14:00:00 13.8 7 Este 10 Este 0 -- -- 66
2020-01-07 13:00:00 13.4 6 Este 15 Este 0 -- -- 68
2020-01-07 12:00:00 12.8 8 Este 18 Sudeste 0 -- -- 69
2020-01-07 11:00:00 10.7 5 Sudeste 10 Sudeste 0 -- -- 76
2020-01-07 10:00:00 10 4 Este 16 Sur 0 -- -- 77
2020-01-07 09:00:00 8.9 7 Sur 15 Sur 0 -- -- 77
2020-01-07 08:00:00 8.8 9 Sur 15 Sur 0 -- -- 77
2020-01-07 07:00:00 9.2 7 Sur 11 Sur 0 -- -- 75
2020-01-07 06:00:00 9.1 6 Sur 9 Sur 0 -- -- 76
2020-01-07 05:00:00 9 2 Sur 4 Sur 0 -- -- 77
2020-01-07 04:00:00 9 3 Sudoeste 18 Sudoeste 0 -- -- 76
2020-01-07 03:00:00 9.1 12 Sudoeste 21 Sudoeste 0 -- -- 77
2020-01-07 02:00:00 9.9 13 Sudoeste 21 Sudoeste 0 -- -- 76
2020-01-07 01:00:00 9.7 11 Sudoeste 19 Sudoeste 0 -- -- 79
2020-01-07 00:00:00 8.9 12 Sudoeste 17 Sudoeste 0 -- -- 82
2020-01-06 23:00:00 8.9 12 Sudoeste 24 Sudoeste 0 -- -- 82
2020-01-06 22:00:00 9.2 15 Sudoeste 21 Sudoeste 0 -- -- 82
2020-01-06 21:00:00 9.4 12 Sudoeste 20 Oeste 0 -- -- 83
2020-01-06 20:00:00 9.4 11 Oeste 16 Oeste 0 -- -- 82
2020-01-06 19:00:00 9.3 8 Oeste 21 Sudoeste 0 -- -- 82
2020-01-06 18:00:00 9.8 12 Sudoeste 25 Noroeste 0 -- -- 81
2020-01-06 17:00:00 10.6 15 Noroeste 26 Noroeste 0 -- -- 81
2020-01-06 16:00:00 11.8 12 Noroeste 24 Oeste 0 -- -- 77
2020-01-06 15:00:00 12.1 2 Norte 8 Noroeste 0 -- -- 69
2020-01-06 14:00:00 11.6 3 Noroeste 9 Noroeste 0 -- -- 65
2020-01-06 13:00:00 11.5 2 Noroeste 4 Oeste 0 -- -- 55
2020-01-06 12:00:00 10.6 3 Oeste 8 Oeste 0 -- -- 59
2020-01-06 11:00:00 10.3 3 Este 13 Sudoeste 0 -- -- 59
2020-01-06 10:00:00 8.5 3 Sudeste 19 Sudoeste 0 -- -- 60